Terminal Aerodrome Forecast
Issued by NWS

Home | Current Version | Previous Version | Text Only | Print | Product List | Glossary On
Versions: 1 2 3 4 5 6 7 8 9 10 11 12 13 14 15 16
000
FTUS44 KBMX 051121
TAFANB
TAF
KANB 051121Z 0512/0612 34006KT P6SM SKC
     FM051500 31018G24KT P6SM SCT050
      TEMPO 0519/0522 32022G32KT
     FM060300 34010KT P6SM SKC
     FM060700 33005KT P6SM SKC=

USA.gov is the U.S. government's official web portal to all federal, state and local government web resources and services.